createdAt,value
2019-02-15T00:03:49.863Z,2.00
2019-02-15T00:08:53.651Z,3.00
2019-02-15T00:13:57.448Z,2.00
2019-02-15T00:19:20.202Z,3.00
2019-02-15T00:24:24.090Z,2.00
2019-02-15T00:29:27.907Z,2.00
2019-02-15T00:34:31.745Z,2.00
2019-02-15T00:39:35.527Z,2.00
2019-02-15T00:44:39.313Z,3.00
2019-02-15T00:49:48.873Z,2.25
2019-02-15T00:55:09.576Z,2.00
2019-02-15T01:00:30.849Z,2.00
2019-02-15T01:06:05.526Z,2.00
2019-02-15T01:11:20.779Z,2.00
2019-02-15T01:16:24.542Z,2.00
2019-02-15T01:21:28.399Z,2.00
2019-02-15T01:26:42.311Z,2.00
2019-02-15T01:32:11.153Z,3.00
2019-02-15T01:37:33.767Z,2.00
2019-02-15T01:43:02.384Z,2.00
2019-02-15T01:48:06.218Z,2.00
2019-02-15T01:53:10.082Z,1.20
2019-02-15T01:58:13.844Z,2.50
2019-02-15T02:03:17.643Z,1.75
2019-02-15T02:08:24.909Z,1.25
2019-02-15T02:13:28.682Z,2.00
2019-02-15T02:18:32.466Z,2.00
2019-02-15T02:23:36.255Z,2.00
2019-02-15T02:28:40.058Z,2.00
2019-02-15T02:33:43.853Z,2.00
2019-02-15T02:38:47.683Z,2.00
2019-02-15T02:43:59.398Z,2.20
2019-02-15T02:48:57.014Z,2.00
2019-02-15T02:54:00.842Z,2.00
2019-02-15T02:59:04.642Z,2.00
2019-02-15T03:04:08.424Z,3.00
2019-02-15T03:09:12.243Z,2.40
2019-02-15T03:14:16.054Z,2.00
2019-02-15T03:19:19.851Z,1.25
2019-02-15T03:24:23.665Z,1.60
2019-02-15T03:29:27.455Z,2.00
2019-02-15T03:34:31.290Z,1.80
2019-02-15T03:39:42.333Z,1.75
2019-02-15T03:44:46.142Z,2.00
2019-02-15T03:49:50.044Z,2.00
2019-02-15T03:54:53.827Z,1.00
2019-02-15T03:59:57.605Z,2.00
2019-02-15T04:05:01.399Z,2.00
2019-02-15T04:10:07.375Z,1.00
2019-02-15T04:15:11.152Z,1.83
2019-02-15T04:20:14.939Z,1.60
2019-02-15T04:25:18.695Z,1.00
2019-02-15T04:30:22.470Z,1.00
2019-02-15T04:35:26.259Z,1.25
2019-02-15T04:40:30.028Z,2.00
2019-02-15T04:45:33.958Z,2.00
2019-02-15T04:50:37.733Z,2.50
2019-02-15T04:55:42.803Z,2.00
2019-02-15T05:00:46.593Z,2.00
2019-02-15T05:05:50.437Z,2.00
2019-02-15T05:10:54.224Z,3.00
2019-02-15T05:15:58.053Z,2.75
2019-02-15T05:21:01.819Z,2.00
2019-02-15T05:26:05.594Z,2.00
2019-02-15T05:31:09.386Z,2.50
2019-02-15T05:36:13.167Z,1.40
2019-02-15T05:41:16.932Z,3.00
2019-02-15T05:46:20.689Z,3.00
2019-02-15T05:51:24.473Z,2.00
2019-02-15T05:56:28.247Z,2.00
2019-02-15T06:01:32.104Z,2.00
2019-02-15T06:06:35.886Z,2.00
2019-02-15T06:11:39.692Z,3.00
2019-02-15T06:16:43.463Z,3.00
2019-02-15T06:21:47.256Z,3.00
2019-02-15T06:26:51.039Z,2.00
2019-02-15T06:31:54.803Z,2.00
2019-02-15T06:36:58.586Z,3.00
2019-02-15T06:42:02.350Z,1.75
2019-02-15T06:47:06.116Z,2.80
2019-02-15T06:52:09.895Z,2.00
2019-02-15T06:57:13.663Z,3.00
2019-02-15T07:02:30.666Z,3.00
2019-02-15T07:07:34.445Z,2.40
2019-02-15T07:12:38.201Z,3.00
2019-02-15T07:17:41.977Z,2.40
2019-02-15T07:22:46.194Z,2.20
2019-02-15T07:27:49.972Z,3.00
2019-02-15T07:32:53.767Z,2.80
2019-02-15T07:37:57.553Z,3.00
2019-02-15T07:43:01.342Z,2.00
2019-02-15T07:48:05.121Z,15.25
2019-02-15T07:53:09.230Z,17.00
2019-02-15T07:58:13.110Z,17.00
2019-02-15T08:03:16.999Z,14.60
2019-02-15T08:08:20.780Z,14.50
2019-02-15T08:13:24.558Z,14.25
2019-02-15T08:18:28.361Z,13.00
2019-02-15T08:23:32.150Z,11.80
2019-02-15T08:28:35.952Z,11.75
2019-02-15T08:33:39.732Z,11.00
2019-02-15T08:38:43.527Z,10.00
2019-02-15T08:43:47.321Z,9.25
2019-02-15T08:48:51.103Z,7.20
2019-02-15T08:53:54.901Z,7.00
2019-02-15T08:58:58.876Z,8.25
2019-02-15T09:04:02.649Z,10.00
2019-02-15T09:09:06.680Z,8.00
2019-02-15T09:14:10.455Z,8.00
2019-02-15T09:19:14.239Z,8.00
2019-02-15T09:24:18.016Z,7.20
2019-02-15T09:29:21.783Z,7.75
2019-02-15T09:34:25.591Z,8.00
2019-02-15T09:39:29.360Z,7.00
2019-02-15T09:44:33.142Z,6.00
2019-02-15T09:49:36.914Z,8.00
2019-02-15T09:54:40.724Z,7.50
2019-02-15T09:59:44.522Z,6.00
2019-02-15T10:04:48.313Z,7.00
2019-02-15T10:09:52.090Z,6.50
2019-02-15T10:14:55.865Z,7.00
2019-02-15T10:19:59.637Z,6.00
2019-02-15T10:25:03.490Z,7.00
2019-02-15T10:30:07.859Z,7.00
2019-02-15T10:35:11.679Z,6.20
2019-02-15T10:40:15.450Z,6.00
2019-02-15T10:45:19.213Z,6.00
2019-02-15T10:50:23.006Z,7.00
2019-02-15T10:55:26.772Z,7.00
2019-02-15T11:00:30.554Z,6.40
2019-02-15T11:05:34.333Z,7.60
2019-02-15T11:10:38.096Z,7.75
2019-02-15T11:15:41.884Z,7.00
2019-02-15T11:20:45.660Z,6.50
2019-02-15T11:25:49.433Z,6.50
2019-02-15T11:30:53.197Z,6.00
2019-02-15T11:35:56.966Z,7.00
2019-02-15T11:41:00.751Z,6.00
2019-02-15T11:46:04.515Z,6.75
2019-02-15T11:51:08.294Z,7.00
2019-02-15T11:56:12.072Z,6.00
2019-02-15T12:01:15.842Z,7.40
2019-02-15T12:06:19.608Z,4.00
2019-02-15T12:11:23.371Z,6.00
2019-02-15T12:16:27.153Z,6.75
2019-02-15T12:21:30.922Z,7.00
2019-02-15T12:26:34.690Z,6.00
2019-02-15T12:31:38.469Z,7.00
2019-02-15T12:36:42.295Z,6.80
2019-02-15T12:41:46.080Z,5.00
2019-02-15T12:46:49.847Z,7.00
2019-02-15T12:51:53.630Z,7.00
2019-02-15T12:56:57.401Z,5.20
2019-02-15T13:02:01.179Z,4.00
2019-02-15T13:07:04.940Z,4.00
2019-02-15T13:12:08.713Z,6.00
2019-02-15T13:17:12.489Z,6.00
2019-02-15T13:22:16.266Z,4.50
2019-02-15T13:27:20.048Z,5.20
2019-02-15T13:32:23.834Z,4.40
2019-02-15T13:37:27.617Z,3.00
2019-02-15T13:42:32.732Z,4.00
2019-02-15T13:47:36.529Z,6.00
2019-02-15T13:52:40.382Z,6.00
2019-02-15T13:57:44.205Z,3.80
2019-02-15T14:02:48.001Z,4.00
2019-02-15T14:07:51.784Z,4.00
2019-02-15T14:12:55.563Z,4.00
2019-02-15T14:17:59.373Z,3.80
2019-02-15T14:23:03.170Z,4.00
2019-02-15T14:28:06.961Z,4.00
2019-02-15T14:33:10.733Z,3.25
2019-02-15T14:38:14.507Z,4.00
2019-02-15T14:43:18.291Z,3.75
2019-02-15T14:48:22.078Z,3.00
2019-02-15T14:53:25.835Z,3.75
2019-02-15T14:58:29.623Z,4.00
2019-02-15T15:03:33.438Z,3.80
2019-02-15T15:08:37.303Z,3.00
2019-02-15T15:13:41.185Z,3.75
2019-02-15T15:18:44.991Z,3.25
2019-02-15T15:23:48.869Z,3.50
2019-02-15T15:28:54.674Z,3.00
2019-02-15T15:33:58.456Z,3.00
2019-02-15T15:39:17.919Z,3.00
2019-02-15T15:44:21.769Z,3.75
2019-02-15T15:49:25.541Z,4.00
2019-02-15T15:54:29.319Z,4.50
2019-02-15T15:59:33.071Z,4.00
2019-02-15T16:04:36.920Z,4.00
2019-02-15T16:09:40.708Z,6.00
2019-02-15T16:14:44.477Z,3.50
2019-02-15T16:19:49.908Z,3.60
2019-02-15T16:24:53.783Z,4.00
2019-02-15T16:29:57.583Z,4.00
2019-02-15T16:35:01.369Z,3.40
2019-02-15T16:40:06.868Z,3.00
2019-02-15T16:45:12.442Z,3.40
2019-02-15T16:50:16.230Z,3.00
2019-02-15T16:55:20.216Z,3.00
2019-02-15T17:00:23.985Z,3.20
2019-02-15T17:05:27.764Z,3.00
2019-02-15T17:10:31.554Z,3.00
2019-02-15T17:15:35.454Z,6.75
2019-02-15T17:20:39.223Z,9.25
2019-02-15T17:25:43.016Z,10.75
2019-02-15T17:30:46.890Z,7.00
2019-02-15T17:35:50.783Z,7.75
2019-02-15T17:40:54.580Z,7.25
2019-02-15T17:45:58.380Z,7.40
2019-02-15T17:51:02.120Z,7.25
2019-02-15T17:56:05.898Z,7.25
2019-02-15T18:01:09.676Z,6.40
2019-02-15T18:06:13.458Z,6.25
2019-02-15T18:11:17.244Z,7.25
2019-02-15T18:16:21.031Z,8.00
2019-02-15T18:21:24.807Z,6.60
2019-02-15T18:26:28.587Z,9.00
2019-02-15T18:31:32.371Z,8.75
2019-02-15T18:36:36.150Z,7.75
2019-02-15T18:41:39.920Z,8.40
2019-02-15T18:46:43.690Z,8.00
2019-02-15T18:51:47.458Z,8.00
2019-02-15T18:56:51.245Z,10.00
2019-02-15T19:01:55.085Z,8.40
2019-02-15T19:06:58.871Z,10.00
2019-02-15T19:12:02.647Z,8.00
2019-02-15T19:17:06.436Z,11.00
2019-02-15T19:22:10.206Z,9.25
2019-02-15T19:27:13.975Z,9.00
2019-02-15T19:32:17.926Z,8.20
2019-02-15T19:37:22.190Z,9.00
2019-02-15T19:42:26.186Z,8.25
2019-02-15T19:47:29.972Z,9.00
2019-02-15T19:52:33.750Z,9.50
2019-02-15T19:57:37.552Z,8.00
2019-02-15T20:02:41.493Z,8.75
2019-02-15T20:07:45.281Z,8.00
2019-02-15T20:12:50.165Z,10.00
2019-02-15T20:17:54.007Z,10.75
2019-02-15T20:22:57.837Z,8.75
2019-02-15T20:28:01.630Z,8.00
2019-02-15T20:33:05.415Z,10.00
2019-02-15T20:38:09.218Z,8.20
2019-02-15T20:43:12.990Z,9.20
2019-02-15T20:48:16.756Z,8.25
2019-02-15T20:53:20.528Z,8.00
2019-02-15T20:58:24.313Z,9.60
2019-02-15T21:03:28.096Z,10.80
2019-02-15T21:08:31.881Z,10.00
2019-02-15T21:13:35.672Z,9.00
2019-02-15T21:18:39.470Z,10.20
2019-02-15T21:23:43.337Z,8.50
2019-02-15T21:28:47.157Z,8.80
2019-02-15T21:33:51.082Z,10.00
2019-02-15T21:38:54.862Z,8.50
2019-02-15T21:43:58.659Z,9.75
2019-02-15T21:49:02.442Z,8.00
2019-02-15T21:54:06.205Z,8.00
2019-02-15T21:59:09.982Z,8.75
2019-02-15T22:04:13.812Z,10.20
2019-02-15T22:09:17.705Z,9.25
2019-02-15T22:14:21.516Z,8.00
2019-02-15T22:19:25.267Z,8.50
2019-02-15T22:24:29.189Z,7.20
2019-02-15T22:29:32.965Z,6.50
2019-02-15T22:34:36.745Z,7.75
2019-02-15T22:39:40.530Z,8.00
2019-02-15T22:44:44.304Z,8.80
2019-02-15T22:49:48.306Z,8.00
2019-02-15T22:54:52.180Z,7.60
2019-02-15T22:59:55.966Z,7.75
2019-02-15T23:04:59.752Z,7.50
2019-02-15T23:10:05.437Z,7.00
2019-02-15T23:15:09.259Z,8.20
2019-02-15T23:20:13.044Z,9.00
2019-02-15T23:25:16.808Z,8.40
2019-02-15T23:30:20.760Z,7.60
2019-02-15T23:35:24.636Z,8.00
2019-02-15T23:40:28.422Z,8.00
2019-02-15T23:45:32.190Z,7.00
2019-02-15T23:50:35.998Z,7.20
2019-02-15T23:55:39.774Z,9.00
